Terminal Aerodrome Forecast
Issued by NWS

Home | Current Version | Previous Version | Text Only | Print | Product List | Glossary Off
Versions: 1 2 3 4 5 6 7 8 9 10 11 12 13 14 15 16 17 18 19 20 21

146
FTUS43 KBIS 212322
TAFDIK
TAF
KDIK 212322Z 2200/2224 13015KT P6SM OVC060
     FM220900 15019G28KT P6SM BKN050
     FM221300 15019G28KT P6SM OVC030
     FM221600 16018G26KT P6SM OVC020
     FM221900 17015G24KT P6SM SCT100=

USA.gov is the U.S. government's official web portal to all federal, state and local government web resources and services.